createdAt,value
2023-04-30T00:03:15.275Z,100444.19
2023-04-30T00:07:17.147Z,100442.59
2023-04-30T00:11:19.538Z,100444.90
2023-04-30T00:15:23.202Z,100440.70
2023-04-30T00:19:26.830Z,100441.97
2023-04-30T00:23:28.674Z,100445.56
2023-04-30T00:27:31.401Z,100448.00
2023-04-30T00:31:34.458Z,100449.40
2023-04-30T00:35:37.880Z,100453.45
2023-04-30T00:39:40.644Z,100461.06
2023-04-30T00:43:42.404Z,100463.07
2023-04-30T00:47:44.261Z,100465.61
2023-04-30T00:51:46.312Z,100470.85
2023-04-30T00:55:48.199Z,100473.59
2023-04-30T00:59:51.107Z,100475.98
2023-04-30T01:03:53.300Z,100482.27
2023-04-30T01:07:56.492Z,100482.55
2023-04-30T01:12:13.109Z,100484.29
2023-04-30T01:16:25.598Z,100489.73
2023-04-30T01:20:30.623Z,100490.48
2023-04-30T01:25:10.532Z,100492.33
2023-04-30T01:29:16.382Z,100495.23
2023-04-30T01:33:18.697Z,100497.55
2023-04-30T01:37:45.351Z,100501.56
2023-04-30T01:41:57.487Z,100499.91
2023-04-30T01:46:17.927Z,100501.02
2023-04-30T01:50:43.574Z,100498.23
2023-04-30T01:54:52.180Z,100503.76
2023-04-30T01:58:54.790Z,100506.44
2023-04-30T02:02:58.599Z,100506.92
2023-04-30T02:07:02.808Z,100512.52
2023-04-30T02:11:04.912Z,100520.23
2023-04-30T02:15:10.490Z,100526.55
2023-04-30T02:19:12.271Z,100532.52
2023-04-30T02:23:16.443Z,100531.90
2023-04-30T02:27:19.684Z,100537.67
2023-04-30T02:31:24.195Z,100539.25
2023-04-30T02:35:27.513Z,100545.88
2023-04-30T02:39:29.628Z,100548.09
2023-04-30T02:43:33.966Z,100546.92
2023-04-30T02:47:36.752Z,100550.94
2023-04-30T02:51:38.981Z,100558.91
2023-04-30T02:55:41.859Z,100566.37
2023-04-30T02:59:45.424Z,100575.31
2023-04-30T03:03:48.047Z,100579.13
2023-04-30T03:07:50.703Z,100581.21
2023-04-30T03:11:53.321Z,100586.79
2023-04-30T03:16:04.223Z,100587.66
2023-04-30T03:20:07.782Z,100591.63
2023-04-30T03:24:10.272Z,100593.08
2023-04-30T03:28:13.408Z,100598.42
2023-04-30T03:32:23.720Z,100603.28
2023-04-30T03:36:28.567Z,100609.72
2023-04-30T03:40:31.133Z,100617.37
2023-04-30T03:44:34.431Z,100621.06
2023-04-30T03:48:38.199Z,100623.79
2023-04-30T03:52:41.981Z,100627.20
2023-04-30T03:56:43.915Z,100631.73
2023-04-30T04:00:48.834Z,100638.80
2023-04-30T04:04:52.372Z,100644.66
2023-04-30T04:08:57.552Z,100649.02
2023-04-30T04:13:03.671Z,100653.71
2023-04-30T04:17:06.513Z,100650.80
2023-04-30T04:21:08.345Z,100659.23
2023-04-30T04:25:11.440Z,100668.14
2023-04-30T04:29:13.324Z,100674.66
2023-04-30T04:33:15.727Z,100677.30
2023-04-30T04:37:18.276Z,100680.96
2023-04-30T04:41:20.498Z,100683.91
2023-04-30T04:45:23.407Z,100685.44
2023-04-30T04:49:26.077Z,100684.34
2023-04-30T04:53:28.797Z,100688.77
2023-04-30T04:57:31.225Z,100698.85
2023-04-30T05:01:34.269Z,100702.88
2023-04-30T05:05:36.811Z,100706.98
2023-04-30T05:09:40.022Z,100713.88
2023-04-30T05:13:43.365Z,100720.07
2023-04-30T05:17:45.726Z,100727.30
2023-04-30T05:21:47.949Z,100737.15
2023-04-30T05:25:52.942Z,100740.11
2023-04-30T05:29:55.796Z,100743.92
2023-04-30T05:33:58.355Z,100745.20
2023-04-30T05:38:02.500Z,100745.98
2023-04-30T05:42:05.614Z,100751.10
2023-04-30T05:46:07.344Z,100751.49
2023-04-30T05:50:10.000Z,100755.77
2023-04-30T05:54:13.743Z,100760.86
2023-04-30T05:58:16.731Z,100759.38
2023-04-30T06:02:19.850Z,100763.75
2023-04-30T06:06:22.893Z,100763.36
2023-04-30T06:10:25.343Z,100765.77
2023-04-30T06:14:29.419Z,100762.02
2023-04-30T06:18:32.085Z,100768.52
2023-04-30T06:22:33.933Z,100774.88
2023-04-30T06:26:38.328Z,100775.52
2023-04-30T06:30:40.821Z,100772.83
2023-04-30T06:34:42.718Z,100771.86
2023-04-30T06:38:46.457Z,100776.19
2023-04-30T06:42:48.192Z,100780.77
2023-04-30T06:46:50.406Z,100778.11
2023-04-30T06:50:52.956Z,100783.55
2023-04-30T06:54:54.963Z,100784.30
2023-04-30T06:59:00.983Z,100782.98
2023-04-30T07:03:04.209Z,100780.98
2023-04-30T07:07:06.901Z,100777.26
2023-04-30T07:11:09.138Z,100782.14
2023-04-30T07:15:11.227Z,100788.19
2023-04-30T07:19:14.532Z,100785.90
2023-04-30T07:23:16.198Z,100787.63
2023-04-30T07:27:18.014Z,100785.32
2023-04-30T07:31:19.792Z,100785.66
2023-04-30T07:35:21.679Z,100784.84
2023-04-30T07:39:23.529Z,100790.11
2023-04-30T07:43:25.153Z,100795.17
2023-04-30T07:47:26.749Z,100796.84
2023-04-30T07:51:29.081Z,100796.70
2023-04-30T07:55:31.220Z,100803.23
2023-04-30T07:59:33.849Z,100801.74
2023-04-30T08:03:35.989Z,100805.93
2023-04-30T08:07:37.736Z,100806.70
2023-04-30T08:11:39.710Z,100805.86
2023-04-30T08:15:41.898Z,100806.27
2023-04-30T08:19:43.427Z,100809.81
2023-04-30T08:23:45.383Z,100809.23
2023-04-30T08:27:47.047Z,100808.14
2023-04-30T08:31:49.014Z,100807.30
2023-04-30T08:35:50.974Z,100809.89
2023-04-30T08:39:52.927Z,100813.73
2023-04-30T08:43:58.970Z,100810.21
2023-04-30T08:48:01.383Z,100815.46
2023-04-30T08:52:03.634Z,100815.40
2023-04-30T08:56:05.706Z,100812.00
2023-04-30T09:00:09.048Z,100812.27
2023-04-30T09:04:11.139Z,100812.54
2023-04-30T09:08:18.910Z,100809.97
2023-04-30T09:12:22.030Z,100812.78
2023-04-30T09:16:25.562Z,100818.48
2023-04-30T09:20:27.802Z,100818.20
2023-04-30T09:24:46.728Z,100818.83
2023-04-30T09:28:58.328Z,100820.71
2023-04-30T09:33:00.197Z,100823.35
2023-04-30T09:37:03.605Z,100819.65
2023-04-30T09:41:05.500Z,100824.23
2023-04-30T09:45:11.644Z,100823.20
2023-04-30T09:49:13.041Z,100820.02
2023-04-30T09:53:17.294Z,100820.04
2023-04-30T09:57:22.454Z,100821.16
2023-04-30T10:01:29.523Z,100811.48
2023-04-30T10:05:32.616Z,100808.68
2023-04-30T10:10:03.440Z,100813.55
2023-04-30T10:14:11.290Z,100808.10
2023-04-30T10:18:28.900Z,100807.27
2023-04-30T10:22:32.425Z,100805.35
2023-04-30T10:26:35.409Z,100798.86
2023-04-30T10:30:37.792Z,100795.38
2023-04-30T10:34:47.728Z,100794.09
2023-04-30T10:38:50.848Z,100791.80
2023-04-30T10:42:56.891Z,100787.30
2023-04-30T10:47:01.920Z,100776.03
2023-04-30T10:51:03.763Z,100782.20
2023-04-30T10:55:07.276Z,100775.89
2023-04-30T10:59:09.078Z,100780.43
2023-04-30T11:03:10.843Z,100778.70
2023-04-30T11:07:12.513Z,100776.55
2023-04-30T11:11:20.518Z,100779.71
2023-04-30T11:15:26.791Z,100781.84
2023-04-30T11:19:29.479Z,100782.44
2023-04-30T11:27:46.999Z,100778.60
2023-04-30T11:31:49.649Z,100771.54
2023-04-30T11:35:52.418Z,100771.44
2023-04-30T11:39:55.874Z,100773.31
2023-04-30T11:43:57.862Z,100770.11
2023-04-30T11:47:59.836Z,100771.58
2023-04-30T11:52:03.086Z,100768.23
2023-04-30T11:56:05.889Z,100765.33
2023-04-30T12:00:28.334Z,100766.48
2023-04-30T12:04:30.140Z,100765.70
2023-04-30T12:08:32.073Z,100762.27
2023-04-30T12:12:37.291Z,100764.06
2023-04-30T12:16:59.409Z,100765.64
2023-04-30T12:21:01.486Z,100760.70
2023-04-30T12:25:09.591Z,100759.92
2023-04-30T12:29:17.222Z,100764.35
2023-04-30T12:33:19.408Z,100758.23
2023-04-30T12:37:21.120Z,100757.32
2023-04-30T12:41:23.776Z,100756.40
2023-04-30T12:45:51.331Z,100756.63
2023-04-30T12:49:53.563Z,100751.73
2023-04-30T12:53:55.237Z,100747.24
2023-04-30T12:58:10.361Z,100737.96
2023-04-30T13:02:14.227Z,100749.95
2023-04-30T13:06:16.009Z,100747.04
2023-04-30T13:10:18.090Z,100738.75
2023-04-30T13:14:19.655Z,100735.23
2023-04-30T13:18:21.322Z,100734.91
2023-04-30T13:22:24.688Z,100727.69
2023-04-30T13:26:27.915Z,100725.47
2023-04-30T13:30:29.633Z,100724.19
2023-04-30T13:34:31.195Z,100719.90
2023-04-30T13:38:33.006Z,100718.44
2023-04-30T13:42:37.797Z,100722.27
2023-04-30T13:46:39.327Z,100720.92
2023-04-30T13:50:40.829Z,100723.55
2023-04-30T13:54:42.540Z,100721.59
2023-04-30T13:58:45.847Z,100720.11
2023-04-30T14:02:47.474Z,100719.52
2023-04-30T14:06:50.485Z,100718.12
2023-04-30T14:10:52.264Z,100704.88
2023-04-30T14:14:53.929Z,100706.04
2023-04-30T14:18:55.616Z,100700.14
2023-04-30T14:22:57.116Z,100701.52
2023-04-30T14:27:00.063Z,100698.73
2023-04-30T14:31:01.577Z,100707.14
2023-04-30T14:35:04.394Z,100703.14
2023-04-30T14:39:07.141Z,100699.13
2023-04-30T14:43:08.909Z,100702.44
2023-04-30T14:47:11.176Z,100695.66
2023-04-30T14:51:13.229Z,100686.05
2023-04-30T14:55:14.897Z,100683.39
2023-04-30T14:59:17.326Z,100688.70
2023-04-30T15:03:19.032Z,100692.21
2023-04-30T15:07:21.047Z,100689.63
2023-04-30T15:11:24.395Z,100688.98
2023-04-30T15:15:28.144Z,100685.53
2023-04-30T15:19:30.304Z,100682.69
2023-04-30T15:23:33.046Z,100681.65
2023-04-30T15:27:36.284Z,100677.40
2023-04-30T15:31:37.924Z,100677.96
2023-04-30T15:35:39.642Z,100680.45
2023-04-30T15:39:41.152Z,100673.67
2023-04-30T15:43:42.771Z,100674.83
2023-04-30T15:47:45.051Z,100679.83
2023-04-30T15:51:46.696Z,100680.21
2023-04-30T15:55:49.194Z,100679.23
2023-04-30T15:59:50.826Z,100677.90
2023-04-30T16:03:52.733Z,100679.22
2023-04-30T16:07:58.452Z,100678.84
2023-04-30T16:12:00.663Z,100677.09
2023-04-30T16:16:03.086Z,100673.65
2023-04-30T16:20:05.467Z,100672.40
2023-04-30T16:24:08.770Z,100667.33
2023-04-30T16:28:10.619Z,100663.77
2023-04-30T16:32:12.571Z,100662.81
2023-04-30T16:36:14.222Z,100663.17
2023-04-30T16:40:16.115Z,100664.43
2023-04-30T16:44:18.026Z,100661.11
2023-04-30T16:48:19.574Z,100657.84
2023-04-30T16:52:21.410Z,100660.77
2023-04-30T16:56:22.982Z,100660.92
2023-04-30T17:00:24.682Z,100658.73
2023-04-30T17:04:26.749Z,100662.80
2023-04-30T17:08:28.812Z,100658.48
2023-04-30T17:12:31.752Z,100665.94
2023-04-30T17:16:33.774Z,100671.23
2023-04-30T17:20:35.846Z,100671.81
2023-04-30T17:29:32.528Z,100675.67
2023-04-30T17:33:34.767Z,100673.21
2023-04-30T17:37:36.727Z,100677.83
2023-04-30T17:41:39.532Z,100679.11
2023-04-30T17:45:43.530Z,100681.02
2023-04-30T17:49:45.755Z,100683.64
2023-04-30T17:53:47.798Z,100683.11
2023-04-30T17:57:50.109Z,100682.13
2023-04-30T18:01:52.803Z,100685.53
2023-04-30T18:05:55.085Z,100688.20
2023-04-30T18:09:58.292Z,100692.88
2023-04-30T18:14:00.604Z,100692.24
2023-04-30T18:18:02.786Z,100693.36
2023-04-30T18:22:04.806Z,100696.86
2023-04-30T18:26:06.690Z,100703.38
2023-04-30T18:30:09.927Z,100707.09
2023-04-30T18:34:12.464Z,100709.26
2023-04-30T18:38:14.241Z,100711.69
2023-04-30T18:42:16.062Z,100719.41
2023-04-30T18:46:17.665Z,100725.05
2023-04-30T18:50:21.010Z,100725.61
2023-04-30T18:54:23.585Z,100733.23
2023-04-30T18:58:25.611Z,100734.69
2023-04-30T19:02:27.851Z,100737.19
2023-04-30T19:06:32.784Z,100741.77
2023-04-30T19:10:35.696Z,100745.23
2023-04-30T19:14:37.438Z,100752.52
2023-04-30T19:18:39.217Z,100751.75
2023-04-30T19:22:41.360Z,100754.13
2023-04-30T19:26:43.208Z,100756.05
2023-04-30T19:30:50.266Z,100755.17
2023-04-30T19:34:52.204Z,100762.24
2023-04-30T19:38:54.733Z,100767.98
2023-04-30T19:42:56.273Z,100767.47
2023-04-30T19:46:57.867Z,100777.02
2023-04-30T19:51:03.246Z,100778.98
2023-04-30T19:55:05.263Z,100784.87
2023-04-30T19:59:08.361Z,100788.98
2023-04-30T20:03:11.992Z,100786.63
2023-04-30T20:07:13.931Z,100788.67
2023-04-30T20:11:16.072Z,100792.30
2023-04-30T20:15:18.068Z,100789.90
2023-04-30T20:19:24.646Z,100791.42
2023-04-30T20:23:26.204Z,100795.67
2023-04-30T20:27:27.822Z,100794.60
2023-04-30T20:31:30.692Z,100802.45
2023-04-30T20:35:32.712Z,100805.73
2023-04-30T20:39:34.665Z,100807.74
2023-04-30T20:43:36.635Z,100807.89
2023-04-30T20:47:41.691Z,100807.73
2023-04-30T20:51:43.572Z,100807.41
2023-04-30T20:55:45.865Z,100810.08
2023-04-30T20:59:47.567Z,100806.90
2023-04-30T21:03:50.170Z,100805.16
2023-04-30T21:07:52.045Z,100811.37
2023-04-30T21:11:53.747Z,100812.50
2023-04-30T21:16:00.280Z,100814.13
2023-04-30T21:20:03.730Z,100814.71
2023-04-30T21:24:07.056Z,100814.11
2023-04-30T21:28:09.394Z,100817.41
2023-04-30T21:32:11.352Z,100821.48
2023-04-30T21:36:15.870Z,100823.36
2023-04-30T21:40:17.872Z,100823.10
2023-04-30T21:44:19.740Z,100827.30
2023-04-30T21:48:21.479Z,100829.46
2023-04-30T21:52:23.203Z,100826.02
2023-04-30T21:56:25.158Z,100828.82
2023-04-30T22:00:27.419Z,100830.41
2023-04-30T22:04:29.486Z,100837.38
2023-04-30T22:08:31.386Z,100840.29
2023-04-30T22:12:34.610Z,100842.19
2023-04-30T22:16:36.399Z,100840.89
2023-04-30T22:20:39.276Z,100843.77
2023-04-30T22:24:41.038Z,100844.94
2023-04-30T22:28:43.022Z,100843.32
2023-04-30T22:32:44.952Z,100845.76
2023-04-30T22:36:47.769Z,100844.61
2023-04-30T22:40:49.752Z,100844.54
2023-04-30T22:44:52.588Z,100844.09
2023-04-30T22:48:54.975Z,100842.14
2023-04-30T22:52:57.960Z,100845.52
2023-04-30T22:56:59.831Z,100844.21
2023-04-30T23:01:01.982Z,100843.58
2023-04-30T23:05:03.860Z,100844.93
2023-04-30T23:09:05.460Z,100851.34
2023-04-30T23:13:07.333Z,100847.83
2023-04-30T23:17:09.627Z,100841.13
2023-04-30T23:21:11.785Z,100840.14
2023-04-30T23:25:13.765Z,100830.40
2023-04-30T23:29:15.588Z,100828.98
2023-04-30T23:33:17.906Z,100830.88
2023-04-30T23:37:20.216Z,100828.20
2023-04-30T23:41:21.989Z,100824.09
2023-04-30T23:45:24.090Z,100822.98
2023-04-30T23:49:26.611Z,100819.25
2023-04-30T23:53:28.688Z,100818.48
2023-04-30T23:57:30.344Z,100814.85
